sensor_id;sensor_type;location;lat;lon;timestamp;pressure;altitude;pressure_sealevel;temperature;humidity
30967;BME280;17649;51.836;8.330;2023-04-03T00:02:35;102428.09;;;4.30;100.00
30967;BME280;17649;51.836;8.330;2023-04-03T00:05:35;102426.41;;;4.16;100.00
30967;BME280;17649;51.836;8.330;2023-04-03T00:08:36;102426.41;;;4.16;100.00
30967;BME280;17649;51.836;8.330;2023-04-03T00:11:36;102431.53;;;4.12;100.00
30967;BME280;17649;51.836;8.330;2023-04-03T00:14:37;102425.56;;;4.07;100.00
30967;BME280;17649;51.836;8.330;2023-04-03T00:17:37;102429.81;;;4.11;100.00
30967;BME280;17649;51.836;8.330;2023-04-03T00:20:38;102422.16;;;4.08;100.00
30967;BME280;17649;51.836;8.330;2023-04-03T00:23:38;102428.97;;;3.97;100.00
30967;BME280;17649;51.836;8.330;2023-04-03T00:26:39;102428.97;;;3.92;100.00
30967;BME280;17649;51.836;8.330;2023-04-03T00:29:39;102432.34;;;3.85;100.00
30967;BME280;17649;51.836;8.330;2023-04-03T00:32:40;102446.00;;;3.84;100.00
30967;BME280;17649;51.836;8.330;2023-04-03T00:35:40;102442.59;;;3.77;100.00
30967;BME280;17649;51.836;8.330;2023-04-03T00:38:40;102447.72;;;3.74;100.00
30967;BME280;17649;51.836;8.330;2023-04-03T00:41:41;102448.53;;;3.67;100.00
30967;BME280;17649;51.836;8.330;2023-04-03T00:47:42;102451.94;;;3.62;100.00
30967;BME280;17649;51.836;8.330;2023-04-03T00:50:44;102456.19;;;3.56;100.00
30967;BME280;17649;51.836;8.330;2023-04-03T00:53:50;102461.28;;;3.53;100.00
30967;BME280;17649;51.836;8.330;2023-04-03T00:56:54;102460.44;;;3.53;100.00
30967;BME280;17649;51.836;8.330;2023-04-03T00:59:59;102461.28;;;3.52;100.00
30967;BME280;17649;51.836;8.330;2023-04-03T01:03:01;102452.75;;;3.48;100.00
30967;BME280;17649;51.836;8.330;2023-04-03T01:06:02;102452.75;;;3.50;100.00
30967;BME280;17649;51.836;8.330;2023-04-03T01:09:03;102453.59;;;3.43;100.00
30967;BME280;17649;51.836;8.330;2023-04-03T01:12:21;102454.41;;;3.33;100.00
30967;BME280;17649;51.836;8.330;2023-04-03T01:15:24;102458.69;;;3.37;100.00
30967;BME280;17649;51.836;8.330;2023-04-03T01:18:25;102458.66;;;3.27;100.00
30967;BME280;17649;51.836;8.330;2023-04-03T01:25:08;102462.03;;;3.26;100.00
30967;BME280;17649;51.836;8.330;2023-04-03T01:28:12;102460.31;;;3.22;100.00
30967;BME280;17649;51.836;8.330;2023-04-03T01:34:26;102466.28;;;3.26;100.00
30967;BME280;17649;51.836;8.330;2023-04-03T01:37:27;102458.59;;;3.14;100.00
30967;BME280;17649;51.836;8.330;2023-04-03T01:40:27;102466.22;;;3.11;100.00
30967;BME280;17649;51.836;8.330;2023-04-03T01:43:27;102471.34;;;3.08;100.00
30967;BME280;17649;51.836;8.330;2023-04-03T01:46:28;102468.72;;;2.97;100.00
30967;BME280;17649;51.836;8.330;2023-04-03T01:49:28;102468.75;;;3.03;100.00
30967;BME280;17649;51.836;8.330;2023-04-03T01:52:28;102479.88;;;3.10;100.00
30967;BME280;17649;51.836;8.330;2023-04-03T01:55:29;102470.47;;;3.01;100.00
30967;BME280;17649;51.836;8.330;2023-04-03T01:58:29;102469.59;;;2.99;100.00
30967;BME280;17649;51.836;8.330;2023-04-03T02:01:29;102466.13;;;2.92;100.00
30967;BME280;17649;51.836;8.330;2023-04-03T02:04:30;102473.78;;;2.85;100.00
30967;BME280;17649;51.836;8.330;2023-04-03T02:07:30;102472.94;;;2.87;100.00
30967;BME280;17649;51.836;8.330;2023-04-03T02:10:30;102469.44;;;2.78;100.00
30967;BME280;17649;51.836;8.330;2023-04-03T02:13:31;102473.69;;;2.74;100.00
30967;BME280;17649;51.836;8.330;2023-04-03T02:16:31;102471.97;;;2.72;100.00
30967;BME280;17649;51.836;8.330;2023-04-03T02:19:31;102470.28;;;2.75;100.00
30967;BME280;17649;51.836;8.330;2023-04-03T02:22:32;102477.09;;;2.72;100.00
30967;BME280;17649;51.836;8.330;2023-04-03T02:25:33;102472.84;;;2.72;100.00
30967;BME280;17649;51.836;8.330;2023-04-03T02:28:34;102477.09;;;2.70;100.00
30967;BME280;17649;51.836;8.330;2023-04-03T02:31:34;102476.25;;;2.73;100.00
30967;BME280;17649;51.836;8.330;2023-04-03T02:34:35;102479.63;;;2.68;100.00
30967;BME280;17649;51.836;8.330;2023-04-03T02:37:35;102477.09;;;2.73;100.00
30967;BME280;17649;51.836;8.330;2023-04-03T02:40:36;102484.75;;;2.68;100.00
30967;BME280;17649;51.836;8.330;2023-04-03T02:43:37;102488.13;;;2.67;100.00
30967;BME280;17649;51.836;8.330;2023-04-03T02:46:37;102485.53;;;2.60;100.00
30967;BME280;17649;51.836;8.330;2023-04-03T02:49:37;102484.63;;;2.53;100.00
30967;BME280;17649;51.836;8.330;2023-04-03T02:52:38;102482.00;;;2.44;100.00
30967;BME280;17649;51.836;8.330;2023-04-03T02:55:38;102488.00;;;2.52;100.00
30967;BME280;17649;51.836;8.330;2023-04-03T02:58:38;102493.91;;;2.45;100.00
30967;BME280;17649;51.836;8.330;2023-04-03T03:01:39;102484.47;;;2.38;100.00
30967;BME280;17649;51.836;8.330;2023-04-03T03:04:39;102483.56;;;2.27;100.00
30967;BME280;17649;51.836;8.330;2023-04-03T03:07:40;102480.16;;;2.28;100.00
30967;BME280;17649;51.836;8.330;2023-04-03T03:10:40;102483.56;;;2.27;100.00
30967;BME280;17649;51.836;8.330;2023-04-03T03:13:41;102487.69;;;2.16;100.00
30967;BME280;17649;51.836;8.330;2023-04-03T03:16:41;102483.44;;;2.13;100.00
30967;BME280;17649;51.836;8.330;2023-04-03T03:19:42;102486.84;;;2.14;100.00
30967;BME280;17649;51.836;8.330;2023-04-03T03:22:42;102480.88;;;2.13;100.00
30967;BME280;17649;51.836;8.330;2023-04-03T03:25:42;102487.69;;;2.13;100.00
30967;BME280;17649;51.836;8.330;2023-04-03T03:28:43;102486.84;;;2.14;100.00
30967;BME280;17649;51.836;8.330;2023-04-03T03:31:43;102493.66;;;2.15;100.00
30967;BME280;17649;51.836;8.330;2023-04-03T03:34:43;102496.25;;;2.21;100.00
30967;BME280;17649;51.836;8.330;2023-04-03T03:37:44;102502.13;;;2.11;100.00
30967;BME280;17649;51.836;8.330;2023-04-03T03:40:44;102503.84;;;2.12;100.00
30967;BME280;17649;51.836;8.330;2023-04-03T03:43:45;102504.59;;;2.03;100.00
30967;BME280;17649;51.836;8.330;2023-04-03T03:46:45;102500.22;;;1.91;100.00
30967;BME280;17649;51.836;8.330;2023-04-03T03:49:45;102497.63;;;1.87;100.00
30967;BME280;17649;51.836;8.330;2023-04-03T03:52:46;102500.16;;;1.87;100.00
30967;BME280;17649;51.836;8.330;2023-04-03T03:55:46;102495.81;;;1.78;100.00
30967;BME280;17649;51.836;8.330;2023-04-03T03:58:47;102509.38;;;1.74;100.00
30967;BME280;17649;51.836;8.330;2023-04-03T04:01:47;102508.47;;;1.67;100.00
30967;BME280;17649;51.836;8.330;2023-04-03T04:04:48;102515.19;;;1.62;100.00
30967;BME280;17649;51.836;8.330;2023-04-03T04:07:48;102513.50;;;1.63;100.00
30967;BME280;17649;51.836;8.330;2023-04-03T04:10:50;102511.72;;;1.56;100.00
30967;BME280;17649;51.836;8.330;2023-04-03T04:13:50;102511.66;;;1.49;100.00
30967;BME280;17649;51.836;8.330;2023-04-03T04:16:51;102513.25;;;1.43;100.00
30967;BME280;17649;51.836;8.330;2023-04-03T04:19:51;102508.28;;;1.51;100.00
30967;BME280;17649;51.836;8.330;2023-04-03T04:22:51;102516.69;;;1.46;100.00
30967;BME280;17649;51.836;8.330;2023-04-03T04:25:52;102516.66;;;1.43;100.00
30967;BME280;17649;51.836;8.330;2023-04-03T04:28:52;102524.25;;;1.37;100.00
30967;BME280;17649;51.836;8.330;2023-04-03T04:31:52;102517.34;;;1.30;100.00
30967;BME280;17649;51.836;8.330;2023-04-03T04:34:53;102526.72;;;1.31;100.00
30967;BME280;17649;51.836;8.330;2023-04-03T04:37:53;102523.28;;;1.29;100.00
30967;BME280;17649;51.836;8.330;2023-04-03T04:40:54;102525.88;;;1.32;100.00
30967;BME280;17649;51.836;8.330;2023-04-03T04:43:54;102533.53;;;1.32;100.00
30967;BME280;17649;51.836;8.330;2023-04-03T04:46:55;102530.22;;;1.38;100.00
30967;BME280;17649;51.836;8.330;2023-04-03T04:49:55;102535.19;;;1.30;100.00
30967;BME280;17649;51.836;8.330;2023-04-03T04:52:55;102536.88;;;1.28;100.00
30967;BME280;17649;51.836;8.330;2023-04-03T04:55:56;102543.69;;;1.29;100.00
30967;BME280;17649;51.836;8.330;2023-04-03T04:58:56;102543.72;;;1.32;100.00
30967;BME280;17649;51.836;8.330;2023-04-03T05:01:56;102534.34;;;1.30;100.00
30967;BME280;17649;51.836;8.330;2023-04-03T05:04:57;102533.41;;;1.23;100.00
30967;BME280;17649;51.836;8.330;2023-04-03T05:07:57;102542.00;;;1.30;100.00
30967;BME280;17649;51.836;8.330;2023-04-03T05:10:57;102542.00;;;1.31;100.00
30967;BME280;17649;51.836;8.330;2023-04-03T05:13:58;102544.50;;;1.27;100.00
30967;BME280;17649;51.836;8.330;2023-04-03T05:16:58;102544.47;;;1.22;100.00
30967;BME280;17649;51.836;8.330;2023-04-03T05:19:58;102543.59;;;1.20;100.00
30967;BME280;17649;51.836;8.330;2023-04-03T05:23:00;102548.75;;;1.25;100.00
30967;BME280;17649;51.836;8.330;2023-04-03T05:26:00;102562.59;;;1.43;100.00
30967;BME280;17649;51.836;8.330;2023-04-03T05:29:01;102559.16;;;1.40;100.00
30967;BME280;17649;51.836;8.330;2023-04-03T05:32:01;102559.97;;;1.37;100.00
30967;BME280;17649;51.836;8.330;2023-04-03T05:35:02;102563.41;;;1.39;100.00
30967;BME280;17649;51.836;8.330;2023-04-03T05:38:03;102577.91;;;1.45;100.00
30967;BME280;17649;51.836;8.330;2023-04-03T05:41:03;102571.16;;;1.48;100.00
30967;BME280;17649;51.836;8.330;2023-04-03T05:44:05;102575.47;;;1.51;100.00
30967;BME280;17649;51.836;8.330;2023-04-03T05:47:06;102576.34;;;1.53;100.00
30967;BME280;17649;51.836;8.330;2023-04-03T05:50:07;102584.94;;;1.63;100.00
30967;BME280;17649;51.836;8.330;2023-04-03T05:53:13;102581.53;;;1.61;100.00
30967;BME280;17649;51.836;8.330;2023-04-03T05:56:15;102588.41;;;1.65;100.00
30967;BME280;17649;51.836;8.330;2023-04-03T05:59:17;102589.34;;;1.73;100.00
30967;BME280;17649;51.836;8.330;2023-04-03T06:02:22;102592.81;;;1.78;100.00
30967;BME280;17649;51.836;8.330;2023-04-03T06:05:22;102594.53;;;1.79;100.00
30967;BME280;17649;51.836;8.330;2023-04-03T06:08:23;102603.09;;;1.84;100.00
30967;BME280;17649;51.836;8.330;2023-04-03T06:11:25;102600.72;;;1.98;100.00
30967;BME280;17649;51.836;8.330;2023-04-03T06:14:26;102613.50;;;1.98;100.00
30967;BME280;17649;51.836;8.330;2023-04-03T06:17:26;102612.75;;;2.08;100.00
30967;BME280;17649;51.836;8.330;2023-04-03T06:20:27;102613.75;;;2.22;100.00
30967;BME280;17649;51.836;8.330;2023-04-03T06:23:27;102614.88;;;2.47;100.00
30967;BME280;17649;51.836;8.330;2023-04-03T06:26:28;102611.84;;;2.83;100.00
30967;BME280;17649;51.836;8.330;2023-04-03T06:29:28;102614.78;;;3.38;100.00
30967;BME280;17649;51.836;8.330;2023-04-03T06:32:29;102610.59;;;3.48;100.00
30967;BME280;17649;51.836;8.330;2023-04-03T06:35:29;102611.34;;;3.33;100.00
30967;BME280;17649;51.836;8.330;2023-04-03T06:38:32;102606.88;;;3.02;100.00
30967;BME280;17649;51.836;8.330;2023-04-03T06:41:33;102616.88;;;2.76;100.00
30967;BME280;17649;51.836;8.330;2023-04-03T06:44:33;102611.84;;;2.85;100.00
30967;BME280;17649;51.836;8.330;2023-04-03T06:47:34;102612.59;;;2.76;100.00
30967;BME280;17649;51.836;8.330;2023-04-03T06:50:35;102612.59;;;2.75;100.00
30967;BME280;17649;51.836;8.330;2023-04-03T06:53:35;102620.34;;;2.84;100.00
30967;BME280;17649;51.836;8.330;2023-04-03T06:56:36;102617.88;;;2.94;100.00
30967;BME280;17649;51.836;8.330;2023-04-03T06:59:36;102623.91;;;3.01;100.00
30967;BME280;17649;51.836;8.330;2023-04-03T07:02:36;102632.47;;;3.06;100.00
30967;BME280;17649;51.836;8.330;2023-04-03T07:05:37;102629.03;;;3.04;100.00
30967;BME280;17649;51.836;8.330;2023-04-03T07:08:38;102645.25;;;3.05;100.00
30967;BME280;17649;51.836;8.330;2023-04-03T07:11:38;102643.63;;;3.13;100.00
30967;BME280;17649;51.836;8.330;2023-04-03T07:14:39;102646.06;;;2.99;100.00
30967;BME280;17649;51.836;8.330;2023-04-03T07:17:39;102649.59;;;3.15;100.00
30967;BME280;17649;51.836;8.330;2023-04-03T07:20:40;102654.78;;;3.25;100.00
30967;BME280;17649;51.836;8.330;2023-04-03T07:23:41;102659.94;;;3.28;100.00
30967;BME280;17649;51.836;8.330;2023-04-03T07:26:41;102663.47;;;3.43;100.00
30967;BME280;17649;51.836;8.330;2023-04-03T07:29:43;102663.41;;;3.37;100.00
30967;BME280;17649;51.836;8.330;2023-04-03T07:32:44;102666.91;;;3.48;100.00
30967;BME280;17649;51.836;8.330;2023-04-03T07:35:45;102669.53;;;3.58;100.00
30967;BME280;17649;51.836;8.330;2023-04-03T07:38:47;102668.72;;;3.64;100.00
30967;BME280;17649;51.836;8.330;2023-04-03T07:41:49;102671.34;;;3.78;100.00
30967;BME280;17649;51.836;8.330;2023-04-03T07:44:50;102672.28;;;3.91;100.00
30967;BME280;17649;51.836;8.330;2023-04-03T07:47:51;102668.88;;;3.95;100.00
30967;BME280;17649;51.836;8.330;2023-04-03T07:50:53;102669.66;;;3.83;100.00
30967;BME280;17649;51.836;8.330;2023-04-03T07:53:53;102672.38;;;4.12;100.00
30967;BME280;17649;51.836;8.330;2023-04-03T07:56:54;102677.56;;;4.30;100.00
30967;BME280;17649;51.836;8.330;2023-04-03T07:59:54;102683.59;;;4.43;100.00
30967;BME280;17649;51.836;8.330;2023-04-03T08:02:56;102683.59;;;4.40;100.00
30967;BME280;17649;51.836;8.330;2023-04-03T08:06:01;102681.88;;;4.40;100.00
30967;BME280;17649;51.836;8.330;2023-04-03T08:09:03;102679.31;;;4.40;100.00
30967;BME280;17649;51.836;8.330;2023-04-03T08:12:04;102690.41;;;4.38;100.00
30967;BME280;17649;51.836;8.330;2023-04-03T08:15:05;102683.63;;;4.58;100.00
30967;BME280;17649;51.836;8.330;2023-04-03T08:18:07;102680.25;;;4.67;100.00
30967;BME280;17649;51.836;8.330;2023-04-03T08:21:09;102682.81;;;4.67;100.00
30967;BME280;17649;51.836;8.330;2023-04-03T08:24:11;102676.81;;;4.71;100.00
30967;BME280;17649;51.836;8.330;2023-04-03T08:27:11;102682.84;;;4.77;100.00
30967;BME280;17649;51.836;8.330;2023-04-03T08:30:12;102677.72;;;4.79;100.00
30967;BME280;17649;51.836;8.330;2023-04-03T08:33:13;102682.84;;;4.85;100.00
30967;BME280;17649;51.836;8.330;2023-04-03T08:39:21;102671.75;;;5.15;100.00
30967;BME280;17649;51.836;8.330;2023-04-03T08:45:59;102682.00;;;5.12;100.00
30967;BME280;17649;51.836;8.330;2023-04-03T08:49:01;102668.31;;;5.37;100.00
30967;BME280;17649;51.836;8.330;2023-04-03T08:52:05;102667.44;;;5.43;100.00
30967;BME280;17649;51.836;8.330;2023-04-03T08:55:22;102674.28;;;5.52;100.00
30967;BME280;17649;51.836;8.330;2023-04-03T08:58:26;102677.72;;;5.52;100.00
30967;BME280;17649;51.836;8.330;2023-04-03T09:01:34;102677.66;;;5.64;100.00
30967;BME280;17649;51.836;8.330;2023-04-03T09:04:36;102674.22;;;5.78;100.00
30967;BME280;17649;51.836;8.330;2023-04-03T09:07:42;102673.34;;;5.80;100.00
30967;BME280;17649;51.836;8.330;2023-04-03T09:10:42;102672.50;;;5.86;100.00
30967;BME280;17649;51.836;8.330;2023-04-03T09:14:01;102671.66;;;5.96;100.00
30967;BME280;17649;51.836;8.330;2023-04-03T09:17:09;102679.34;;;5.93;100.00
30967;BME280;17649;51.836;8.330;2023-04-03T09:29:45;102665.44;;;6.40;100.00
30967;BME280;17649;51.836;8.330;2023-04-03T09:32:48;102673.19;;;6.35;100.00
30967;BME280;17649;51.836;8.330;2023-04-03T09:35:48;102662.88;;;6.43;100.00
30967;BME280;17649;51.836;8.330;2023-04-03T09:39:03;102660.25;;;6.50;100.00
30967;BME280;17649;51.836;8.330;2023-04-03T09:42:16;102674.81;;;6.51;100.00
30967;BME280;17649;51.836;8.330;2023-04-03T09:45:37;102661.81;;;6.74;100.00
30967;BME280;17649;51.836;8.330;2023-04-03T09:48:37;102668.50;;;7.00;100.00
30967;BME280;17649;51.836;8.330;2023-04-03T09:51:38;102657.41;;;6.92;100.00
30967;BME280;17649;51.836;8.330;2023-04-03T09:54:40;102659.91;;;6.98;100.00
30967;BME280;17649;51.836;8.330;2023-04-03T09:57:41;102653.88;;;7.05;100.00
30967;BME280;17649;51.836;8.330;2023-04-03T10:00:42;102661.59;;;7.05;100.00
30967;BME280;17649;51.836;8.330;2023-04-03T10:03:44;102652.94;;;7.15;100.00
30967;BME280;17649;51.836;8.330;2023-04-03T10:06:49;102665.94;;;7.01;100.00
30967;BME280;17649;51.836;8.330;2023-04-03T10:10:22;102649.38;;;7.28;100.00
30967;BME280;17649;51.836;8.330;2023-04-03T10:13:25;102647.34;;;7.58;100.00
30967;BME280;17649;51.836;8.330;2023-04-03T10:16:46;102645.53;;;7.69;100.00
30967;BME280;17649;51.836;8.330;2023-04-03T10:42:55;102623.28;;;8.34;88.43
30967;BME280;17649;51.836;8.330;2023-04-03T10:55:52;102621.41;;;8.99;100.00
30967;BME280;17649;51.836;8.330;2023-04-03T10:59:28;102619.06;;;8.85;85.34
30967;BME280;17649;51.836;8.330;2023-04-03T11:02:41;102619.34;;;9.19;84.43
30967;BME280;17649;51.836;8.330;2023-04-03T11:05:49;102620.41;;;9.09;100.00
30967;BME280;17649;51.836;8.330;2023-04-03T11:08:57;102611.09;;;8.99;100.00
30967;BME280;17649;51.836;8.330;2023-04-03T11:12:29;102616.66;;;8.73;94.33
30967;BME280;17649;51.836;8.330;2023-04-03T11:15:33;102624.59;;;8.61;89.70
30967;BME280;17649;51.836;8.330;2023-04-03T11:18:52;102619.69;;;8.44;98.44
30967;BME280;17649;51.836;8.330;2023-04-03T11:21:58;102609.94;;;9.15;80.54
30967;BME280;17649;51.836;8.330;2023-04-03T11:28:13;102590.75;;;11.22;85.58
30967;BME280;17649;51.836;8.330;2023-04-03T11:34:44;102582.97;;;13.69;66.10
30967;BME280;17649;51.836;8.330;2023-04-03T11:37:48;102586.31;;;12.98;59.29
30967;BME280;17649;51.836;8.330;2023-04-03T11:40:51;102580.59;;;12.07;53.98
30967;BME280;17649;51.836;8.330;2023-04-03T11:44:04;102585.53;;;12.69;70.10
30967;BME280;17649;51.836;8.330;2023-04-03T11:47:07;102589.88;;;12.14;75.46
30967;BME280;17649;51.836;8.330;2023-04-03T11:50:08;102590.19;;;11.73;62.67
30967;BME280;17649;51.836;8.330;2023-04-03T11:56:30;102580.38;;;12.41;55.14
30967;BME280;17649;51.836;8.330;2023-04-03T11:59:37;102571.75;;;13.43;52.55
30967;BME280;17649;51.836;8.330;2023-04-03T12:02:38;102558.66;;;13.70;52.19
30967;BME280;17649;51.836;8.330;2023-04-03T12:05:38;102565.06;;;13.83;51.02
30967;BME280;17649;51.836;8.330;2023-04-03T12:11:39;102547.47;;;13.20;52.81
30967;BME280;17649;51.836;8.330;2023-04-03T12:14:39;102550.16;;;13.41;51.53
30967;BME280;17649;51.836;8.330;2023-04-03T12:17:41;102552.72;;;13.18;59.16
30967;BME280;17649;51.836;8.330;2023-04-03T12:20:52;102551.69;;;12.18;58.96
30967;BME280;17649;51.836;8.330;2023-04-03T12:27:20;102547.75;;;12.06;52.58
30967;BME280;17649;51.836;8.330;2023-04-03T12:30:26;102528.25;;;12.74;59.38
30967;BME280;17649;51.836;8.330;2023-04-03T12:40:27;102533.59;;;12.69;49.29
30967;BME280;17649;51.836;8.330;2023-04-03T12:46:49;102528.63;;;10.88;67.38
30967;BME280;17649;51.836;8.330;2023-04-03T12:49:53;102524.66;;;10.39;56.92
30967;BME280;17649;51.836;8.330;2023-04-03T12:53:10;102516.66;;;12.31;58.16
30967;BME280;17649;51.836;8.330;2023-04-03T12:56:25;102526.25;;;12.29;51.78
30967;BME280;17649;51.836;8.330;2023-04-03T12:59:26;102515.66;;;13.60;51.29
30967;BME280;17649;51.836;8.330;2023-04-03T13:02:34;102520.34;;;13.73;48.35
30967;BME280;17649;51.836;8.330;2023-04-03T13:05:35;102494.59;;;13.66;45.59
30967;BME280;17649;51.836;8.330;2023-04-03T13:08:37;102492.34;;;14.02;45.78
30967;BME280;17649;51.836;8.330;2023-04-03T13:11:51;102502.94;;;12.28;46.67
30967;BME280;17649;51.836;8.330;2023-04-03T13:15:02;102502.25;;;13.92;47.81
30967;BME280;17649;51.836;8.330;2023-04-03T13:18:04;102491.47;;;14.66;45.09
30967;BME280;17649;51.836;8.330;2023-04-03T13:24:08;102495.56;;;15.49;42.20
30967;BME280;17649;51.836;8.330;2023-04-03T13:27:10;102487.13;;;16.53;40.46
30967;BME280;17649;51.836;8.330;2023-04-03T13:30:23;102486.00;;;16.05;39.11
30967;BME280;17649;51.836;8.330;2023-04-03T13:33:29;102479.84;;;17.25;38.91
30967;BME280;17649;51.836;8.330;2023-04-03T13:36:37;102472.66;;;19.80;37.93
30967;BME280;17649;51.836;8.330;2023-04-03T13:39:39;102471.16;;;20.16;39.15
30967;BME280;17649;51.836;8.330;2023-04-03T13:42:41;102462.59;;;20.27;37.22
30967;BME280;17649;51.836;8.330;2023-04-03T13:45:56;102459.19;;;16.36;43.70
30967;BME280;17649;51.836;8.330;2023-04-03T13:48:57;102468.94;;;14.44;45.69
30967;BME280;17649;51.836;8.330;2023-04-03T13:52:00;102460.75;;;15.69;45.16
30967;BME280;17649;51.836;8.330;2023-04-03T13:58:24;102450.38;;;18.31;38.29
30967;BME280;17649;51.836;8.330;2023-04-03T14:01:26;102452.28;;;19.57;38.00
30967;BME280;17649;51.836;8.330;2023-04-03T14:04:46;102448.44;;;18.48;35.06
30967;BME280;17649;51.836;8.330;2023-04-03T14:07:48;102448.75;;;15.28;38.45
30967;BME280;17649;51.836;8.330;2023-04-03T14:10:49;102451.78;;;14.39;43.19
30967;BME280;17649;51.836;8.330;2023-04-03T14:13:51;102442.16;;;15.75;39.32
30967;BME280;17649;51.836;8.330;2023-04-03T14:16:55;102441.69;;;16.03;42.71
30967;BME280;17649;51.836;8.330;2023-04-03T14:19:56;102439.88;;;15.69;41.29
30967;BME280;17649;51.836;8.330;2023-04-03T14:22:59;102452.47;;;15.41;40.85
30967;BME280;17649;51.836;8.330;2023-04-03T14:25:59;102437.84;;;15.93;40.12
30967;BME280;17649;51.836;8.330;2023-04-03T14:29:00;102423.72;;;17.31;38.17
30967;BME280;17649;51.836;8.330;2023-04-03T14:32:01;102426.41;;;18.95;36.25
30967;BME280;17649;51.836;8.330;2023-04-03T14:35:01;102419.38;;;20.31;33.13
30967;BME280;17649;51.836;8.330;2023-04-03T14:38:02;102413.56;;;20.38;31.73
30967;BME280;17649;51.836;8.330;2023-04-03T14:41:02;102409.72;;;21.19;31.09
30967;BME280;17649;51.836;8.330;2023-04-03T14:44:03;102404.84;;;21.97;29.49
30967;BME280;17649;51.836;8.330;2023-04-03T14:47:03;102391.41;;;23.25;28.71
30967;BME280;17649;51.836;8.330;2023-04-03T14:50:07;102393.66;;;23.93;29.24
30967;BME280;17649;51.836;8.330;2023-04-03T14:53:13;102389.00;;;21.86;28.30
30967;BME280;17649;51.836;8.330;2023-04-03T14:56:25;102395.53;;;18.56;33.54
30967;BME280;17649;51.836;8.330;2023-04-03T14:59:28;102391.16;;;16.39;39.32
30967;BME280;17649;51.836;8.330;2023-04-03T15:02:34;102375.41;;;18.99;34.09
30967;BME280;17649;51.836;8.330;2023-04-03T15:05:35;102376.63;;;18.23;35.44
30967;BME280;17649;51.836;8.330;2023-04-03T15:08:37;102379.31;;;20.14;33.05
30967;BME280;17649;51.836;8.330;2023-04-03T15:11:38;102382.31;;;19.56;31.72
30967;BME280;17649;51.836;8.330;2023-04-03T15:14:38;102384.06;;;20.60;32.46
30967;BME280;17649;51.836;8.330;2023-04-03T15:17:38;102395.31;;;18.16;33.13
30967;BME280;17649;51.836;8.330;2023-04-03T15:20:39;102387.00;;;17.01;37.27
30967;BME280;17649;51.836;8.330;2023-04-03T15:23:39;102396.88;;;15.76;38.00
30967;BME280;17649;51.836;8.330;2023-04-03T15:26:40;102403.00;;;14.83;38.89
30967;BME280;17649;51.836;8.330;2023-04-03T15:29:42;102403.09;;;14.61;39.91
30967;BME280;17649;51.836;8.330;2023-04-03T15:32:43;102396.66;;;14.29;44.90
30967;BME280;17649;51.836;8.330;2023-04-03T15:35:44;102389.81;;;13.19;44.34
30967;BME280;17649;51.836;8.330;2023-04-03T15:38:44;102395.81;;;11.70;48.27
30967;BME280;17649;51.836;8.330;2023-04-03T15:41:44;102398.44;;;11.40;51.43
30967;BME280;17649;51.836;8.330;2023-04-03T15:44:45;102407.44;;;11.28;51.27
30967;BME280;17649;51.836;8.330;2023-04-03T15:47:46;102403.72;;;10.78;50.68
30967;BME280;17649;51.836;8.330;2023-04-03T15:50:46;102405.16;;;9.88;55.88
30967;BME280;17649;51.836;8.330;2023-04-03T15:53:47;102397.94;;;9.65;79.00
30967;BME280;17649;51.836;8.330;2023-04-03T15:56:48;102397.59;;;9.78;77.88
30967;BME280;17649;51.836;8.330;2023-04-03T15:59:49;102399.53;;;9.70;75.32
30967;BME280;17649;51.836;8.330;2023-04-03T16:02:55;102394.44;;;9.67;74.97
30967;BME280;17649;51.836;8.330;2023-04-03T16:05:57;102393.03;;;10.27;68.00
30967;BME280;17649;51.836;8.330;2023-04-03T16:08:58;102388.25;;;12.16;55.86
30967;BME280;17649;51.836;8.330;2023-04-03T16:11:59;102388.69;;;14.12;47.60
30967;BME280;17649;51.836;8.330;2023-04-03T16:15:00;102381.63;;;15.86;43.08
30967;BME280;17649;51.836;8.330;2023-04-03T16:18:01;102383.78;;;15.78;40.79
30967;BME280;17649;51.836;8.330;2023-04-03T16:21:03;102378.44;;;16.49;38.58
30967;BME280;17649;51.836;8.330;2023-04-03T16:24:03;102385.06;;;17.20;37.62
30967;BME280;17649;51.836;8.330;2023-04-03T16:27:04;102390.22;;;18.86;35.15
30967;BME280;17649;51.836;8.330;2023-04-03T16:30:05;102383.16;;;18.30;35.57
30967;BME280;17649;51.836;8.330;2023-04-03T16:33:05;102383.31;;;18.71;33.67
30967;BME280;17649;51.836;8.330;2023-04-03T16:36:06;102388.78;;;18.38;33.49
30967;BME280;17649;51.836;8.330;2023-04-03T16:39:07;102386.41;;;18.92;34.10
30967;BME280;17649;51.836;8.330;2023-04-03T16:42:09;102372.28;;;18.07;36.64
30967;BME280;17649;51.836;8.330;2023-04-03T16:45:10;102383.66;;;17.15;36.20
30967;BME280;17649;51.836;8.330;2023-04-03T16:48:10;102384.50;;;17.31;35.46
30967;BME280;17649;51.836;8.330;2023-04-03T16:51:24;102391.09;;;16.23;36.48
30967;BME280;17649;51.836;8.330;2023-04-03T16:54:25;102386.75;;;16.90;35.43
30967;BME280;17649;51.836;8.330;2023-04-03T16:57:26;102384.13;;;17.37;35.95
30967;BME280;17649;51.836;8.330;2023-04-03T17:00:30;102381.25;;;17.73;35.09
30967;BME280;17649;51.836;8.330;2023-04-03T17:03:31;102378.78;;;17.86;33.75
30967;BME280;17649;51.836;8.330;2023-04-03T17:06:31;102379.47;;;16.79;35.41
30967;BME280;17649;51.836;8.330;2023-04-03T17:09:32;102381.44;;;14.98;38.78
30967;BME280;17649;51.836;8.330;2023-04-03T17:12:33;102379.91;;;13.50;39.64
30967;BME280;17649;51.836;8.330;2023-04-03T17:15:33;102386.38;;;11.95;44.07
30967;BME280;17649;51.836;8.330;2023-04-03T17:18:34;102388.69;;;10.60;49.37
30967;BME280;17649;51.836;8.330;2023-04-03T17:21:35;102379.50;;;10.14;51.28
30967;BME280;17649;51.836;8.330;2023-04-03T17:24:36;102390.94;;;10.05;54.09
30967;BME280;17649;51.836;8.330;2023-04-03T17:27:36;102388.59;;;9.59;61.90